createdAt,value
2018-09-13T00:00:21.718Z,4.33
2018-09-13T00:02:52.120Z,4.07
2018-09-13T00:05:22.540Z,4.10
2018-09-13T00:07:52.942Z,4.10
2018-09-13T00:10:23.323Z,6.63
2018-09-13T00:12:53.753Z,4.80
2018-09-13T00:15:24.134Z,5.47
2018-09-13T00:17:54.534Z,6.00
2018-09-13T00:20:29.035Z,4.97
2018-09-13T00:22:59.422Z,4.43
2018-09-13T00:25:31.869Z,5.30
2018-09-13T00:28:23.765Z,6.83
2018-09-13T00:30:54.048Z,9.03
2018-09-13T00:33:24.436Z,6.00
2018-09-13T00:35:59.960Z,8.80
2018-09-13T00:38:30.287Z,11.37
2018-09-13T00:41:00.681Z,9.73
2018-09-13T00:43:31.088Z,10.67
2018-09-13T00:46:01.473Z,9.93
2018-09-13T00:48:31.878Z,9.87
2018-09-13T00:51:03.085Z,11.67
2018-09-13T00:53:33.472Z,12.30
2018-09-13T00:56:03.877Z,11.73
2018-09-13T00:58:35.119Z,12.07
2018-09-13T01:01:06.497Z,11.70
2018-09-13T01:03:36.877Z,12.63
2018-09-13T01:06:07.494Z,13.20
2018-09-13T01:08:37.825Z,13.50
2018-09-13T01:11:08.406Z,13.83
2018-09-13T01:13:38.830Z,15.03
2018-09-13T01:16:09.204Z,13.43
2018-09-13T01:18:39.610Z,14.23
2018-09-13T01:21:10.038Z,13.53
2018-09-13T01:23:42.474Z,16.93
2018-09-13T01:26:12.874Z,14.53
2018-09-13T01:28:43.300Z,12.87
2018-09-13T01:31:13.703Z,15.10
2018-09-13T01:33:44.098Z,15.77
2018-09-13T01:36:14.458Z,16.37
2018-09-13T01:38:44.857Z,15.03
2018-09-13T01:41:15.248Z,16.97
2018-09-13T01:43:46.440Z,17.17
2018-09-13T01:46:18.915Z,17.27
2018-09-13T01:48:54.456Z,14.53
2018-09-13T01:51:26.892Z,15.83
2018-09-13T01:53:57.287Z,16.67
2018-09-13T01:56:27.730Z,16.83
2018-09-13T01:58:58.130Z,15.00
2018-09-13T02:01:28.527Z,17.17
2018-09-13T02:03:58.959Z,13.93
2018-09-13T02:06:29.349Z,16.10
2018-09-13T02:11:45.449Z,15.57
2018-09-13T02:14:15.850Z,15.70
2018-09-13T02:17:06.674Z,16.33
2018-09-13T02:19:37.073Z,18.43
2018-09-13T02:22:07.469Z,16.33
2018-09-13T02:24:37.971Z,15.90
2018-09-13T02:27:08.631Z,17.87
2018-09-13T02:29:39.723Z,17.80
2018-09-13T02:32:10.167Z,18.47
2018-09-13T02:34:41.610Z,15.70
2018-09-13T02:37:12.020Z,16.97
2018-09-13T02:40:02.825Z,18.20
2018-09-13T02:42:33.221Z,16.97
2018-09-13T02:45:03.618Z,16.27
2018-09-13T02:47:34.033Z,16.60
2018-09-13T02:50:04.430Z,17.53
2018-09-13T02:52:34.830Z,15.33
2018-09-13T02:55:05.260Z,18.37
2018-09-13T02:57:35.596Z,18.90
2018-09-13T03:00:09.046Z,16.47
2018-09-13T03:02:39.448Z,16.60
2018-09-13T03:05:09.858Z,18.93
2018-09-13T03:07:40.262Z,19.17
2018-09-13T03:10:10.689Z,18.10
2018-09-13T03:12:41.095Z,19.33
2018-09-13T03:15:12.267Z,18.60
2018-09-13T03:17:42.877Z,19.30
2018-09-13T03:20:14.032Z,19.17
2018-09-13T03:22:44.420Z,20.03
2018-09-13T03:25:14.840Z,17.37
2018-09-13T03:27:45.175Z,18.73
2018-09-13T03:30:17.041Z,19.10
2018-09-13T03:32:47.466Z,19.97
2018-09-13T03:35:17.855Z,19.40
2018-09-13T03:37:55.583Z,20.00
2018-09-13T03:40:25.991Z,24.40
2018-09-13T03:42:56.376Z,26.73
2018-09-13T03:45:26.799Z,22.93
2018-09-13T03:47:57.131Z,20.57
2018-09-13T03:50:27.603Z,22.10
2018-09-13T03:52:58.744Z,29.23
2018-09-13T03:55:29.076Z,24.40
2018-09-13T03:57:59.407Z,22.10
2018-09-13T04:00:29.838Z,25.63
2018-09-13T04:03:00.225Z,22.00
2018-09-13T04:05:30.613Z,24.10
2018-09-13T04:08:01.740Z,24.97
2018-09-13T04:10:32.073Z,25.63
2018-09-13T04:13:02.732Z,22.53
2018-09-13T04:15:33.156Z,21.80
2018-09-13T04:18:03.558Z,22.27
2018-09-13T04:20:33.961Z,21.40
2018-09-13T04:23:04.400Z,18.47
2018-09-13T04:25:34.785Z,20.13
2018-09-13T04:28:05.190Z,20.60
2018-09-13T04:30:35.604Z,21.33
2018-09-13T04:33:06.969Z,23.60
2018-09-13T04:35:37.530Z,20.50
2018-09-13T04:38:08.606Z,18.87
2018-09-13T04:40:38.989Z,20.63
2018-09-13T04:43:12.453Z,18.00
2018-09-13T04:45:43.648Z,21.33
2018-09-13T04:48:34.451Z,21.10
2018-09-13T04:51:27.058Z,21.70
2018-09-13T04:53:58.240Z,22.30
2018-09-13T04:56:28.621Z,21.33
2018-09-13T04:58:59.803Z,21.50
2018-09-13T05:01:31.244Z,19.03
2018-09-13T05:04:01.636Z,18.37
2018-09-13T05:06:32.085Z,18.43
2018-09-13T05:09:03.256Z,20.47
2018-09-13T05:11:33.601Z,18.40
2018-09-13T05:14:04.046Z,17.63
2018-09-13T05:16:34.453Z,19.40
2018-09-13T05:19:04.861Z,17.40
2018-09-13T05:21:35.286Z,17.90
2018-09-13T05:24:05.876Z,17.30
2018-09-13T05:26:36.271Z,20.30
2018-09-13T05:29:07.735Z,17.53
2018-09-13T05:31:38.192Z,19.33
2018-09-13T05:34:08.529Z,16.13
2018-09-13T05:36:38.953Z,19.57
2018-09-13T05:39:09.347Z,18.67
2018-09-13T05:41:39.750Z,17.60
2018-09-13T05:44:16.242Z,17.53
2018-09-13T05:46:46.723Z,18.87
2018-09-13T05:49:17.139Z,17.97
2018-09-13T05:51:48.519Z,18.23
2018-09-13T05:54:25.062Z,18.77
2018-09-13T05:56:55.465Z,20.70
2018-09-13T05:59:25.868Z,17.47
2018-09-13T06:01:56.259Z,19.27
2018-09-13T06:04:26.678Z,22.23
2018-09-13T06:06:57.080Z,20.20
2018-09-13T06:09:28.178Z,20.10
2018-09-13T06:11:58.602Z,20.23
2018-09-13T06:14:50.348Z,18.70
2018-09-13T06:17:20.705Z,21.73
2018-09-13T06:19:51.967Z,26.20
2018-09-13T06:25:09.672Z,21.83
2018-09-13T06:27:40.081Z,22.37
2018-09-13T06:30:30.889Z,22.40
2018-09-13T06:33:01.313Z,24.37
2018-09-13T06:35:31.703Z,21.47
2018-09-13T06:38:02.120Z,23.60
2018-09-13T06:40:33.351Z,21.37
2018-09-13T06:43:05.512Z,20.20
2018-09-13T06:45:38.643Z,22.10
2018-09-13T06:48:09.042Z,22.03
2018-09-13T06:50:40.208Z,20.20
2018-09-13T06:53:10.635Z,19.40
2018-09-13T06:55:40.957Z,18.53
2018-09-13T06:58:12.066Z,20.27
2018-09-13T07:00:42.501Z,20.17
2018-09-13T07:03:12.907Z,17.53
2018-09-13T07:05:43.318Z,18.17
2018-09-13T07:08:16.813Z,16.93
2018-09-13T07:10:47.210Z,15.40
2018-09-13T07:13:17.596Z,16.10
2018-09-13T07:15:48.040Z,17.30
2018-09-13T07:18:19.143Z,16.87
2018-09-13T07:20:51.696Z,21.33
2018-09-13T07:23:22.136Z,17.40
2018-09-13T07:25:54.584Z,14.77
2018-09-13T07:28:24.977Z,14.23
2018-09-13T07:30:55.403Z,12.17
2018-09-13T07:33:25.772Z,12.27
2018-09-13T07:35:56.176Z,13.10
2018-09-13T07:38:31.012Z,12.47
2018-09-13T07:41:01.407Z,11.90
2018-09-13T07:43:31.817Z,13.20
2018-09-13T07:46:03.265Z,11.83
2018-09-13T07:48:33.644Z,12.27
2018-09-13T07:51:04.747Z,11.80
2018-09-13T07:53:35.175Z,11.40
2018-09-13T07:56:05.557Z,11.30
2018-09-13T07:58:35.959Z,12.20
2018-09-13T08:01:07.159Z,14.77
2018-09-13T08:03:38.572Z,12.60
2018-09-13T08:06:08.982Z,15.33
2018-09-13T08:08:40.164Z,15.40
2018-09-13T08:11:10.566Z,17.70
2018-09-13T08:13:40.960Z,18.17
2018-09-13T08:16:11.383Z,16.83
2018-09-13T08:18:41.776Z,16.53
2018-09-13T08:21:12.200Z,16.43
2018-09-13T08:23:42.606Z,17.40
2018-09-13T08:26:13.014Z,16.07
2018-09-13T08:28:43.355Z,18.37
2018-09-13T08:31:14.553Z,15.13
2018-09-13T08:33:44.945Z,18.17
2018-09-13T08:36:15.342Z,19.07
2018-09-13T08:38:46.520Z,19.83
2018-09-13T08:41:16.932Z,20.07
2018-09-13T08:43:47.333Z,16.93
2018-09-13T08:46:17.741Z,21.13
2018-09-13T08:48:49.159Z,20.17
2018-09-13T08:51:19.560Z,21.20
2018-09-13T08:53:49.986Z,21.03
2018-09-13T08:56:20.375Z,20.90
2018-09-13T08:58:50.781Z,22.67
2018-09-13T09:01:23.898Z,23.07
2018-09-13T09:03:54.477Z,23.67
2018-09-13T09:06:24.899Z,27.33
2018-09-13T09:08:59.064Z,24.30
2018-09-13T09:11:29.453Z,27.00
2018-09-13T09:14:00.884Z,25.80
2018-09-13T09:16:31.303Z,28.17
2018-09-13T09:19:01.693Z,24.83
2018-09-13T09:21:32.037Z,28.53
2018-09-13T09:24:02.570Z,27.83
2018-09-13T09:26:32.875Z,25.67
2018-09-13T09:29:03.323Z,24.43
2018-09-13T09:31:54.100Z,23.57
2018-09-13T09:34:24.511Z,26.80
2018-09-13T09:37:02.455Z,23.70
2018-09-13T09:39:32.838Z,25.67
2018-09-13T09:42:03.247Z,24.70
2018-09-13T09:44:33.691Z,22.43
2018-09-13T09:47:04.082Z,22.73
2018-09-13T09:49:36.269Z,24.00
2018-09-13T09:52:06.729Z,24.63
2018-09-13T09:54:37.040Z,22.30
2018-09-13T09:57:07.432Z,23.20
2018-09-13T09:59:37.861Z,26.50
2018-09-13T10:02:08.323Z,23.07
2018-09-13T10:04:38.660Z,24.07
2018-09-13T10:07:09.115Z,24.03
2018-09-13T10:09:42.582Z,25.60
2018-09-13T10:12:12.932Z,25.47
2018-09-13T10:14:43.340Z,26.00
2018-09-13T10:20:04.472Z,28.23
2018-09-13T10:22:52.880Z,27.13
2018-09-13T10:25:38.088Z,26.07
2018-09-13T10:28:13.479Z,26.63
2018-09-13T10:31:03.013Z,26.03
2018-09-13T10:33:33.442Z,24.37
2018-09-13T10:36:22.085Z,23.83
2018-09-13T10:38:58.104Z,25.23
2018-09-13T10:41:31.414Z,21.47
2018-09-13T10:44:14.507Z,24.63
2018-09-13T10:46:44.931Z,20.53
2018-09-13T10:49:15.325Z,26.50
2018-09-13T10:51:45.722Z,22.50
2018-09-13T10:54:16.202Z,25.10
2018-09-13T10:56:46.542Z,23.73
2018-09-13T10:59:17.723Z,26.93
2018-09-13T11:01:48.078Z,22.20
2018-09-13T11:04:18.560Z,23.33
2018-09-13T11:06:50.930Z,24.80
2018-09-13T11:09:21.397Z,24.50
2018-09-13T11:11:51.759Z,25.13
2018-09-13T11:14:22.159Z,24.07
2018-09-13T11:16:52.592Z,22.87
2018-09-13T11:19:23.000Z,24.93
2018-09-13T11:21:55.449Z,25.83
2018-09-13T11:24:25.900Z,27.17
2018-09-13T11:26:56.217Z,23.00
2018-09-13T11:29:26.625Z,22.33
2018-09-13T11:31:57.695Z,26.67
2018-09-13T11:34:35.406Z,25.40
2018-09-13T11:37:06.008Z,24.17
2018-09-13T11:39:36.419Z,23.40
2018-09-13T11:42:07.580Z,22.23
2018-09-13T11:44:38.665Z,25.43
2018-09-13T11:47:09.069Z,22.17
2018-09-13T11:49:46.642Z,22.03
2018-09-13T11:52:17.028Z,20.27
2018-09-13T11:54:47.416Z,18.63
2018-09-13T11:57:22.960Z,20.57
2018-09-13T11:59:57.450Z,22.10
2018-09-13T12:02:27.895Z,18.50
2018-09-13T12:04:58.285Z,21.23
2018-09-13T12:07:29.708Z,19.67
2018-09-13T12:10:00.259Z,18.77
2018-09-13T12:12:30.662Z,20.07
2018-09-13T12:15:01.062Z,20.13
2018-09-13T12:17:31.500Z,16.37
2018-09-13T12:20:03.964Z,19.47
2018-09-13T12:22:34.330Z,19.27
2018-09-13T12:25:04.740Z,17.73
2018-09-13T12:27:36.278Z,20.43
2018-09-13T12:30:06.569Z,18.37
2018-09-13T12:32:37.054Z,18.43
2018-09-13T12:35:07.334Z,19.53
2018-09-13T12:37:37.734Z,18.87
2018-09-13T12:40:09.593Z,21.03
2018-09-13T12:42:39.986Z,19.67
2018-09-13T12:45:11.421Z,19.50
2018-09-13T12:47:43.897Z,18.73
2018-09-13T12:50:14.300Z,19.63
2018-09-13T12:52:44.693Z,18.17
2018-09-13T12:55:15.108Z,19.07
2018-09-13T12:57:45.521Z,20.87
2018-09-13T13:00:15.901Z,18.37
2018-09-13T13:02:46.330Z,17.73
2018-09-13T13:05:16.727Z,16.00
2018-09-13T13:07:47.301Z,17.03
2018-09-13T13:10:17.731Z,19.30
2018-09-13T13:12:48.120Z,17.37
2018-09-13T13:15:19.227Z,15.80
2018-09-13T13:17:49.660Z,14.57
2018-09-13T13:20:20.068Z,16.27
2018-09-13T13:23:09.603Z,18.40
2018-09-13T13:25:40.013Z,18.47
2018-09-13T13:28:10.411Z,18.17
2018-09-13T13:30:41.864Z,20.33
2018-09-13T13:33:13.302Z,17.27
2018-09-13T13:35:43.712Z,16.67
2018-09-13T13:38:14.140Z,17.80
2018-09-13T13:40:44.546Z,17.03
2018-09-13T13:43:15.697Z,18.43
2018-09-13T13:45:46.122Z,16.67
2018-09-13T13:48:16.518Z,14.53
2018-09-13T13:50:46.919Z,16.17
2018-09-13T13:53:37.722Z,17.50
2018-09-13T13:56:08.110Z,15.40
2018-09-13T13:58:39.275Z,13.07
2018-09-13T14:01:11.727Z,15.13
2018-09-13T14:03:42.297Z,15.27
2018-09-13T14:06:12.676Z,15.17
2018-09-13T14:08:43.876Z,13.97
2018-09-13T14:11:32.601Z,16.53
2018-09-13T14:14:03.197Z,14.13
2018-09-13T14:16:35.635Z,15.83
2018-09-13T14:19:06.041Z,18.53
2018-09-13T14:21:36.472Z,18.40
2018-09-13T14:24:06.793Z,17.20
2018-09-13T14:26:37.184Z,16.30
2018-09-13T14:29:08.371Z,16.37
2018-09-13T14:34:27.467Z,14.73
2018-09-13T14:36:59.909Z,14.37
2018-09-13T14:39:30.309Z,15.40
2018-09-13T14:42:01.500Z,17.87
2018-09-13T14:44:34.608Z,14.23
2018-09-13T14:47:24.362Z,17.77
2018-09-13T14:49:54.714Z,19.60
2018-09-13T14:52:44.244Z,16.53
2018-09-13T14:55:14.644Z,17.67
2018-09-13T14:57:45.045Z,17.40
2018-09-13T15:00:26.128Z,16.67
2018-09-13T15:02:58.981Z,19.07
2018-09-13T15:05:29.384Z,18.77
2018-09-13T15:08:08.130Z,18.53
2018-09-13T15:10:45.316Z,20.33
2018-09-13T15:13:15.746Z,18.47
2018-09-13T15:15:52.150Z,18.43
2018-09-13T15:18:22.497Z,13.23
2018-09-13T15:20:59.417Z,14.97
2018-09-13T15:23:29.844Z,16.67
2018-09-13T15:26:00.225Z,18.53
2018-09-13T15:28:30.563Z,16.77
2018-09-13T15:31:01.859Z,14.37
2018-09-13T15:33:32.179Z,13.87
2018-09-13T15:36:06.675Z,14.47
2018-09-13T15:38:37.186Z,14.60
2018-09-13T15:41:07.441Z,14.73
2018-09-13T15:43:37.814Z,14.23
2018-09-13T15:46:08.244Z,14.50
2018-09-13T15:48:38.800Z,12.60
2018-09-13T15:51:09.969Z,13.37
2018-09-13T15:53:40.400Z,28.10
2018-09-13T15:56:10.795Z,22.67
2018-09-13T15:58:41.955Z,13.53
2018-09-13T16:01:12.369Z,13.03
2018-09-13T16:03:43.514Z,10.37
2018-09-13T16:06:14.654Z,9.20
2018-09-13T16:08:48.404Z,9.63
2018-09-13T16:11:18.803Z,7.67
2018-09-13T16:13:49.195Z,9.63
2018-09-13T16:16:20.341Z,6.90
2018-09-13T16:18:51.467Z,9.20
2018-09-13T16:21:21.753Z,6.47
2018-09-13T16:23:52.172Z,7.90
2018-09-13T16:26:22.608Z,7.30
2018-09-13T16:28:52.943Z,8.33
2018-09-13T16:31:28.508Z,12.17
2018-09-13T16:34:19.288Z,9.93
2018-09-13T16:36:49.927Z,10.07
2018-09-13T16:39:22.949Z,7.00
2018-09-13T16:42:03.082Z,7.30
2018-09-13T16:44:41.666Z,7.90
2018-09-13T16:47:15.053Z,8.30
2018-09-13T16:49:46.092Z,7.27
2018-09-13T16:52:16.494Z,6.13
2018-09-13T16:54:46.901Z,7.47
2018-09-13T16:57:22.051Z,7.07
2018-09-13T16:59:55.201Z,6.27
2018-09-13T17:02:25.594Z,7.67
2018-09-13T17:04:56.681Z,7.07
2018-09-13T17:07:30.252Z,6.33
2018-09-13T17:10:01.416Z,6.10
2018-09-13T17:12:31.811Z,7.17
2018-09-13T17:15:02.162Z,5.67
2018-09-13T17:17:32.546Z,5.17
2018-09-13T17:20:02.864Z,4.97
2018-09-13T17:22:33.285Z,5.80
2018-09-13T17:25:03.680Z,5.93
2018-09-13T17:27:36.486Z,5.90
2018-09-13T17:30:06.833Z,5.70
2018-09-13T17:32:37.234Z,6.03
2018-09-13T17:35:12.741Z,4.50
2018-09-13T17:37:43.166Z,6.57
2018-09-13T17:40:19.329Z,4.53
2018-09-13T17:42:49.766Z,4.83
2018-09-13T17:45:20.158Z,4.17
2018-09-13T17:47:53.452Z,5.63
2018-09-13T17:50:23.851Z,4.13
2018-09-13T17:52:56.288Z,4.53
2018-09-13T17:55:26.694Z,4.53
2018-09-13T17:57:57.102Z,5.13
2018-09-13T18:00:27.482Z,4.10
2018-09-13T18:02:57.870Z,4.40
2018-09-13T18:05:31.784Z,3.47
2018-09-13T18:08:02.864Z,5.93
2018-09-13T18:10:37.369Z,4.47
2018-09-13T18:15:55.416Z,3.97
2018-09-13T18:18:29.238Z,4.40
2018-09-13T18:20:59.643Z,4.47
2018-09-13T18:23:30.098Z,4.23
2018-09-13T18:26:01.224Z,3.67
2018-09-13T18:28:37.495Z,3.60
2018-09-13T18:31:07.879Z,3.60
2018-09-13T18:33:38.425Z,4.10
2018-09-13T18:36:11.259Z,4.10
2018-09-13T18:38:45.720Z,5.13
2018-09-13T18:41:21.210Z,5.33
2018-09-13T18:43:51.591Z,4.30
2018-09-13T18:46:21.958Z,5.13
2018-09-13T18:48:54.797Z,4.83
2018-09-13T18:51:30.256Z,4.97
2018-09-13T18:54:01.410Z,5.87
2018-09-13T18:56:34.865Z,8.68
2018-09-13T18:59:06.313Z,5.57
2018-09-13T19:01:38.759Z,7.20
2018-09-13T19:04:09.146Z,6.57
2018-09-13T19:06:39.566Z,4.27
2018-09-13T19:09:09.967Z,6.57
2018-09-13T19:12:00.790Z,5.13
2018-09-13T19:14:31.188Z,6.10
2018-09-13T19:17:03.729Z,3.87
2018-09-13T19:19:34.094Z,6.00
2018-09-13T19:22:05.499Z,6.57
2018-09-13T19:24:36.673Z,3.77
2018-09-13T19:27:07.092Z,5.33
2018-09-13T19:29:38.199Z,3.90
2018-09-13T19:32:10.822Z,4.50
2018-09-13T19:34:41.257Z,5.07
2018-09-13T19:37:14.395Z,3.90
2018-09-13T19:39:44.791Z,5.03
2018-09-13T19:42:17.265Z,4.60
2018-09-13T19:44:47.584Z,5.80
2018-09-13T19:47:23.115Z,5.33
2018-09-13T19:49:54.530Z,4.40
2018-09-13T19:52:32.904Z,4.97
2018-09-13T19:55:09.442Z,5.20
2018-09-13T19:57:39.889Z,4.20
2018-09-13T20:00:10.265Z,5.90
2018-09-13T20:02:41.588Z,4.70
2018-09-13T20:05:16.101Z,3.47
2018-09-13T20:07:50.593Z,3.83
2018-09-13T20:10:22.020Z,3.57
2018-09-13T20:12:52.469Z,3.80
2018-09-13T20:15:22.810Z,5.27
2018-09-13T20:17:53.221Z,5.33
2018-09-13T20:20:30.205Z,3.90
2018-09-13T20:23:00.662Z,3.63
2018-09-13T20:25:31.037Z,3.93
2018-09-13T20:28:02.203Z,5.03
2018-09-13T20:30:32.547Z,6.03
2018-09-13T20:33:03.932Z,3.83
2018-09-13T20:35:35.399Z,6.60
2018-09-13T20:38:06.481Z,4.30
2018-09-13T20:40:36.897Z,3.93
2018-09-13T20:43:07.303Z,4.30
2018-09-13T20:45:38.556Z,4.80
2018-09-13T20:48:08.881Z,6.23
2018-09-13T20:50:40.044Z,4.03
2018-09-13T20:53:10.478Z,4.37
2018-09-13T20:55:40.868Z,4.33
2018-09-13T20:58:13.314Z,5.80
2018-09-13T21:00:43.852Z,4.20
2018-09-13T21:03:16.158Z,4.30
2018-09-13T21:05:47.322Z,3.93
2018-09-13T21:08:17.728Z,3.93
2018-09-13T21:10:48.901Z,5.73
2018-09-13T21:13:19.316Z,3.63
2018-09-13T21:15:49.725Z,4.23
2018-09-13T21:18:20.888Z,5.50
2018-09-13T21:20:52.234Z,3.17
2018-09-13T21:23:22.593Z,4.70
2018-09-13T21:25:57.079Z,3.87
2018-09-13T21:28:27.486Z,3.80
2018-09-13T21:30:57.895Z,3.53
2018-09-13T21:33:28.364Z,3.67
2018-09-13T21:36:18.801Z,3.23
2018-09-13T21:38:49.262Z,3.47
2018-09-13T21:41:19.656Z,6.93
2018-09-13T21:44:09.462Z,3.00
2018-09-13T21:46:39.867Z,3.23
2018-09-13T21:49:17.440Z,3.00
2018-09-13T21:51:47.833Z,3.80
2018-09-13T21:54:19.005Z,4.20
2018-09-13T21:56:49.414Z,5.83
2018-09-13T21:59:19.802Z,5.30
2018-09-13T22:01:50.197Z,5.73
2018-09-13T22:04:22.666Z,4.10
2018-09-13T22:06:55.029Z,3.33
2018-09-13T22:09:25.546Z,3.80
2018-09-13T22:11:59.941Z,2.90
2018-09-13T22:14:30.344Z,3.37
2018-09-13T22:17:00.733Z,4.33
2018-09-13T22:19:31.148Z,3.50
2018-09-13T22:22:02.304Z,3.13
2018-09-13T22:24:32.629Z,2.70
2018-09-13T22:27:03.248Z,3.10
2018-09-13T22:29:33.649Z,3.27
2018-09-13T22:32:04.046Z,4.40
2018-09-13T22:37:22.847Z,3.53
2018-09-13T22:39:53.282Z,4.23
2018-09-13T22:42:23.683Z,2.70
2018-09-13T22:44:54.082Z,4.77
2018-09-13T22:47:24.497Z,3.30
2018-09-13T22:49:54.894Z,3.67
2018-09-13T22:52:25.280Z,3.03
2018-09-13T22:55:15.067Z,3.20
2018-09-13T22:57:49.557Z,4.43
2018-09-13T23:00:19.965Z,4.67
2018-09-13T23:02:53.386Z,5.17
2018-09-13T23:05:23.815Z,6.00
2018-09-13T23:07:54.142Z,4.43
2018-09-13T23:10:25.509Z,3.30
2018-09-13T23:12:58.134Z,3.87
2018-09-13T23:15:29.304Z,3.60
2018-09-13T23:17:59.785Z,4.57
2018-09-13T23:20:30.133Z,4.57
2018-09-13T23:23:04.363Z,3.47
2018-09-13T23:25:34.774Z,3.87
2018-09-13T23:28:05.111Z,3.80
2018-09-13T23:30:36.202Z,5.70
2018-09-13T23:33:11.752Z,4.27
2018-09-13T23:35:46.246Z,3.00
2018-09-13T23:38:16.675Z,6.30
2018-09-13T23:40:47.136Z,4.17
2018-09-13T23:43:18.227Z,3.93
2018-09-13T23:45:49.577Z,3.77
2018-09-13T23:48:27.111Z,4.47
2018-09-13T23:50:57.521Z,3.37
2018-09-13T23:53:27.929Z,5.23
2018-09-13T23:55:58.338Z,3.70
2018-09-13T23:58:29.518Z,8.53
